sensor_id;sensor_type;location;lat;lon;timestamp;pressure;altitude;pressure_sealevel;temperature;humidity
80568;BME280;69922;45.656;25.586;2023-06-14T00:00:01;94949.04;;;14.87;67.42
80568;BME280;69922;45.656;25.586;2023-06-14T00:01:08;94946.21;;;14.87;67.45
80568;BME280;69922;45.656;25.586;2023-06-14T00:02:21;94951.52;;;14.88;67.55
80568;BME280;69922;45.656;25.586;2023-06-14T00:03:25;94947.92;;;14.89;67.67
80568;BME280;69922;45.656;25.586;2023-06-14T00:04:29;94948.77;;;14.92;67.60
80568;BME280;69922;45.656;25.586;2023-06-14T00:05:35;94947.95;;;14.93;67.58
80568;BME280;69922;45.656;25.586;2023-06-14T00:06:45;94952.36;;;14.94;67.51
80568;BME280;69922;45.656;25.586;2023-06-14T00:07:49;94954.95;;;14.94;67.56
80568;BME280;69922;45.656;25.586;2023-06-14T00:08:57;94951.40;;;14.93;67.43
80568;BME280;69922;45.656;25.586;2023-06-14T00:10:01;94955.07;;;14.92;67.40
80568;BME280;69922;45.656;25.586;2023-06-14T00:11:05;94954.04;;;14.92;67.32
80568;BME280;69922;45.656;25.586;2023-06-14T00:12:10;94950.88;;;14.91;67.29
80568;BME280;69922;45.656;25.586;2023-06-14T00:13:13;94950.81;;;14.88;67.33
80568;BME280;69922;45.656;25.586;2023-06-14T00:14:17;94951.51;;;14.88;67.32
80568;BME280;69922;45.656;25.586;2023-06-14T00:15:21;94951.29;;;14.88;67.42
80568;BME280;69922;45.656;25.586;2023-06-14T00:16:28;94946.96;;;14.89;67.41
80568;BME280;69922;45.656;25.586;2023-06-14T00:17:31;94950.59;;;14.89;67.50
80568;BME280;69922;45.656;25.586;2023-06-14T00:18:35;94946.08;;;14.91;67.62
80568;BME280;69922;45.656;25.586;2023-06-14T00:19:39;94946.81;;;14.92;67.50
80568;BME280;69922;45.656;25.586;2023-06-14T00:20:45;94945.80;;;14.92;67.55
80568;BME280;69922;45.656;25.586;2023-06-14T00:21:51;94944.73;;;14.93;67.70
80568;BME280;69922;45.656;25.586;2023-06-14T00:22:56;94947.33;;;14.93;67.47
80568;BME280;69922;45.656;25.586;2023-06-14T00:24:00;94944.83;;;14.94;67.46
80568;BME280;69922;45.656;25.586;2023-06-14T00:25:07;94947.12;;;14.95;67.61
80568;BME280;69922;45.656;25.586;2023-06-14T00:26:30;94942.02;;;14.95;67.68
80568;BME280;69922;45.656;25.586;2023-06-14T00:27:34;94945.61;;;14.94;67.54
80568;BME280;69922;45.656;25.586;2023-06-14T00:28:37;94945.21;;;14.94;67.71
80568;BME280;69922;45.656;25.586;2023-06-14T00:29:41;94944.00;;;14.93;68.09
80568;BME280;69922;45.656;25.586;2023-06-14T00:30:45;94939.16;;;14.91;67.78
80568;BME280;69922;45.656;25.586;2023-06-14T00:31:51;94940.93;;;14.89;68.13
80568;BME280;69922;45.656;25.586;2023-06-14T00:32:54;94937.60;;;14.88;67.75
80568;BME280;69922;45.656;25.586;2023-06-14T00:33:58;94940.45;;;14.86;67.75
80568;BME280;69922;45.656;25.586;2023-06-14T00:35:02;94939.78;;;14.84;67.79
80568;BME280;69922;45.656;25.586;2023-06-14T00:36:05;94939.77;;;14.83;68.02
80568;BME280;69922;45.656;25.586;2023-06-14T00:37:09;94935.73;;;14.82;68.29
80568;BME280;69922;45.656;25.586;2023-06-14T00:38:13;94940.71;;;14.80;68.24
80568;BME280;69922;45.656;25.586;2023-06-14T00:39:18;94940.90;;;14.78;68.38
80568;BME280;69922;45.656;25.586;2023-06-14T00:40:21;94942.22;;;14.78;68.26
80568;BME280;69922;45.656;25.586;2023-06-14T00:41:25;94937.05;;;14.75;68.10
80568;BME280;69922;45.656;25.586;2023-06-14T00:42:29;94939.45;;;14.74;68.16
80568;BME280;69922;45.656;25.586;2023-06-14T00:43:32;94937.86;;;14.73;68.50
80568;BME280;69922;45.656;25.586;2023-06-14T00:44:38;94938.10;;;14.73;68.70
80568;BME280;69922;45.656;25.586;2023-06-14T00:45:41;94934.41;;;14.73;68.54
80568;BME280;69922;45.656;25.586;2023-06-14T00:46:46;94930.98;;;14.74;68.25
80568;BME280;69922;45.656;25.586;2023-06-14T00:47:51;94933.81;;;14.75;68.44
80568;BME280;69922;45.656;25.586;2023-06-14T00:48:57;94929.56;;;14.74;68.35
80568;BME280;69922;45.656;25.586;2023-06-14T00:50:08;94931.20;;;14.74;68.51
80568;BME280;69922;45.656;25.586;2023-06-14T00:51:12;94932.01;;;14.74;68.73
80568;BME280;69922;45.656;25.586;2023-06-14T00:52:17;94930.05;;;14.75;68.77
80568;BME280;69922;45.656;25.586;2023-06-14T00:53:21;94930.63;;;14.76;68.80
80568;BME280;69922;45.656;25.586;2023-06-14T00:54:27;94929.52;;;14.76;69.11
80568;BME280;69922;45.656;25.586;2023-06-14T00:55:30;94931.84;;;14.77;69.18
80568;BME280;69922;45.656;25.586;2023-06-14T00:56:37;94925.74;;;14.78;69.03
80568;BME280;69922;45.656;25.586;2023-06-14T00:57:41;94922.77;;;14.79;69.13
80568;BME280;69922;45.656;25.586;2023-06-14T00:58:44;94921.05;;;14.80;69.23
80568;BME280;69922;45.656;25.586;2023-06-14T00:59:49;94925.83;;;14.79;69.05
80568;BME280;69922;45.656;25.586;2023-06-14T01:00:53;94925.61;;;14.80;69.55
80568;BME280;69922;45.656;25.586;2023-06-14T01:01:57;94924.19;;;14.79;69.80
80568;BME280;69922;45.656;25.586;2023-06-14T01:03:01;94923.71;;;14.79;69.72
80568;BME280;69922;45.656;25.586;2023-06-14T01:04:06;94924.59;;;14.79;69.67
80568;BME280;69922;45.656;25.586;2023-06-14T01:05:11;94923.48;;;14.79;69.94
80568;BME280;69922;45.656;25.586;2023-06-14T01:06:20;94921.63;;;14.80;69.88
80568;BME280;69922;45.656;25.586;2023-06-14T01:07:40;94922.58;;;14.81;69.66
80568;BME280;69922;45.656;25.586;2023-06-14T01:08:51;94925.35;;;14.82;69.67
80568;BME280;69922;45.656;25.586;2023-06-14T01:10:12;94922.51;;;14.81;69.56
80568;BME280;69922;45.656;25.586;2023-06-14T01:11:24;94928.30;;;14.81;69.82
80568;BME280;69922;45.656;25.586;2023-06-14T01:12:39;94925.33;;;14.80;69.83
80568;BME280;69922;45.656;25.586;2023-06-14T01:13:49;94927.52;;;14.80;69.66
80568;BME280;69922;45.656;25.586;2023-06-14T01:14:56;94925.56;;;14.81;69.56
80568;BME280;69922;45.656;25.586;2023-06-14T01:16:00;94927.39;;;14.82;69.78
80568;BME280;69922;45.656;25.586;2023-06-14T01:17:07;94926.83;;;14.84;69.66
80568;BME280;69922;45.656;25.586;2023-06-14T01:18:19;94928.27;;;14.85;69.85
80568;BME280;69922;45.656;25.586;2023-06-14T01:19:24;94928.66;;;14.88;70.36
80568;BME280;69922;45.656;25.586;2023-06-14T01:20:31;94928.02;;;14.91;70.72
80568;BME280;69922;45.656;25.586;2023-06-14T01:21:35;94928.61;;;14.92;70.79
80568;BME280;69922;45.656;25.586;2023-06-14T01:22:52;94926.34;;;14.93;70.90
80568;BME280;69922;45.656;25.586;2023-06-14T01:23:55;94928.58;;;14.91;71.09
80568;BME280;69922;45.656;25.586;2023-06-14T01:25:00;94929.57;;;14.90;71.10
80568;BME280;69922;45.656;25.586;2023-06-14T01:26:04;94927.56;;;14.88;71.41
80568;BME280;69922;45.656;25.586;2023-06-14T01:27:09;94927.52;;;14.87;71.44
80568;BME280;69922;45.656;25.586;2023-06-14T01:28:16;94921.89;;;14.88;71.66
80568;BME280;69922;45.656;25.586;2023-06-14T01:29:23;94924.48;;;14.88;71.82
80568;BME280;69922;45.656;25.586;2023-06-14T01:30:28;94924.30;;;14.90;71.98
80568;BME280;69922;45.656;25.586;2023-06-14T01:31:34;94927.90;;;14.93;72.23
80568;BME280;69922;45.656;25.586;2023-06-14T01:32:44;94927.70;;;14.93;72.41
80568;BME280;69922;45.656;25.586;2023-06-14T01:33:51;94925.28;;;14.95;72.48
80568;BME280;69922;45.656;25.586;2023-06-14T01:34:54;94923.73;;;14.96;72.57
80568;BME280;69922;45.656;25.586;2023-06-14T01:35:58;94923.21;;;14.97;72.68
80568;BME280;69922;45.656;25.586;2023-06-14T01:37:05;94925.64;;;14.97;72.71
80568;BME280;69922;45.656;25.586;2023-06-14T01:38:10;94930.35;;;14.96;72.82
80568;BME280;69922;45.656;25.586;2023-06-14T01:39:20;94927.93;;;14.97;72.97
80568;BME280;69922;45.656;25.586;2023-06-14T01:40:25;94928.41;;;14.97;72.87
80568;BME280;69922;45.656;25.586;2023-06-14T01:41:30;94930.09;;;14.99;73.08
80568;BME280;69922;45.656;25.586;2023-06-14T01:42:36;94927.27;;;15.00;72.92
80568;BME280;69922;45.656;25.586;2023-06-14T01:43:44;94927.70;;;15.01;72.97
80568;BME280;69922;45.656;25.586;2023-06-14T01:44:52;94924.47;;;15.04;73.04
80568;BME280;69922;45.656;25.586;2023-06-14T01:45:58;94930.48;;;15.06;73.15
80568;BME280;69922;45.656;25.586;2023-06-14T01:47:04;94934.47;;;15.08;73.07
80568;BME280;69922;45.656;25.586;2023-06-14T01:48:09;94935.62;;;15.11;72.83
80568;BME280;69922;45.656;25.586;2023-06-14T01:49:13;94934.64;;;15.12;72.87
80568;BME280;69922;45.656;25.586;2023-06-14T01:50:17;94938.83;;;15.13;72.87
80568;BME280;69922;45.656;25.586;2023-06-14T01:51:21;94936.03;;;15.14;72.60
80568;BME280;69922;45.656;25.586;2023-06-14T01:52:25;94939.80;;;15.15;72.47
80568;BME280;69922;45.656;25.586;2023-06-14T01:53:28;94936.03;;;15.14;72.44
80568;BME280;69922;45.656;25.586;2023-06-14T01:54:31;94936.41;;;15.14;72.39
80568;BME280;69922;45.656;25.586;2023-06-14T01:55:35;94937.10;;;15.13;72.44
80568;BME280;69922;45.656;25.586;2023-06-14T01:56:40;94938.27;;;15.12;71.64
80568;BME280;69922;45.656;25.586;2023-06-14T01:57:45;94939.87;;;15.11;71.54
80568;BME280;69922;45.656;25.586;2023-06-14T01:58:49;94942.20;;;15.10;71.77
80568;BME280;69922;45.656;25.586;2023-06-14T01:59:53;94942.34;;;15.09;71.61
80568;BME280;69922;45.656;25.586;2023-06-14T02:00:56;94943.11;;;15.09;71.42
80568;BME280;69922;45.656;25.586;2023-06-14T02:02:02;94947.52;;;15.08;71.12
80568;BME280;69922;45.656;25.586;2023-06-14T02:03:05;94948.27;;;15.07;70.88
80568;BME280;69922;45.656;25.586;2023-06-14T02:04:09;94944.44;;;15.04;70.69
80568;BME280;69922;45.656;25.586;2023-06-14T02:05:13;94945.11;;;15.03;70.63
80568;BME280;69922;45.656;25.586;2023-06-14T02:06:16;94945.48;;;15.02;70.75
80568;BME280;69922;45.656;25.586;2023-06-14T02:07:19;94946.23;;;15.01;71.00
80568;BME280;69922;45.656;25.586;2023-06-14T02:08:23;94948.35;;;15.00;70.78
80568;BME280;69922;45.656;25.586;2023-06-14T02:09:27;94945.81;;;14.99;70.74
80568;BME280;69922;45.656;25.586;2023-06-14T02:10:30;94946.73;;;14.98;70.86
80568;BME280;69922;45.656;25.586;2023-06-14T02:11:34;94942.38;;;14.97;71.16
80568;BME280;69922;45.656;25.586;2023-06-14T02:12:37;94943.84;;;14.96;71.04
80568;BME280;69922;45.656;25.586;2023-06-14T02:13:40;94941.62;;;14.95;71.27
80568;BME280;69922;45.656;25.586;2023-06-14T02:14:44;94938.27;;;14.93;71.36
80568;BME280;69922;45.656;25.586;2023-06-14T02:15:47;94939.29;;;14.92;71.27
80568;BME280;69922;45.656;25.586;2023-06-14T02:16:55;94939.15;;;14.94;71.48
80568;BME280;69922;45.656;25.586;2023-06-14T02:17:58;94939.98;;;14.95;71.84
80568;BME280;69922;45.656;25.586;2023-06-14T02:19:02;94940.11;;;14.97;72.13
80568;BME280;69922;45.656;25.586;2023-06-14T02:20:09;94941.41;;;15.00;72.22
80568;BME280;69922;45.656;25.586;2023-06-14T02:21:13;94938.86;;;15.01;72.14
80568;BME280;69922;45.656;25.586;2023-06-14T02:22:17;94940.88;;;15.03;72.19
80568;BME280;69922;45.656;25.586;2023-06-14T02:23:20;94940.80;;;15.03;72.08
80568;BME280;69922;45.656;25.586;2023-06-14T02:24:24;94945.23;;;15.04;72.03
80568;BME280;69922;45.656;25.586;2023-06-14T02:25:27;94944.58;;;15.04;72.45
80568;BME280;69922;45.656;25.586;2023-06-14T02:26:31;94946.81;;;15.05;72.54
80568;BME280;69922;45.656;25.586;2023-06-14T02:27:36;94944.86;;;15.06;72.54
80568;BME280;69922;45.656;25.586;2023-06-14T02:28:39;94944.95;;;15.06;72.34
80568;BME280;69922;45.656;25.586;2023-06-14T02:29:43;94944.00;;;15.06;72.26
80568;BME280;69922;45.656;25.586;2023-06-14T02:30:46;94945.10;;;15.06;71.97
80568;BME280;69922;45.656;25.586;2023-06-14T02:31:49;94948.05;;;15.05;71.89
80568;BME280;69922;45.656;25.586;2023-06-14T02:32:54;94944.36;;;15.05;71.94
80568;BME280;69922;45.656;25.586;2023-06-14T02:33:57;94948.14;;;15.05;71.88
80568;BME280;69922;45.656;25.586;2023-06-14T02:35:01;94946.88;;;15.05;71.66
80568;BME280;69922;45.656;25.586;2023-06-14T02:36:08;94949.00;;;15.05;71.66
80568;BME280;69922;45.656;25.586;2023-06-14T02:37:11;94948.67;;;15.04;71.84
80568;BME280;69922;45.656;25.586;2023-06-14T02:38:16;94946.48;;;15.04;72.07
80568;BME280;69922;45.656;25.586;2023-06-14T02:39:19;94946.33;;;15.05;72.18
80568;BME280;69922;45.656;25.586;2023-06-14T02:40:24;94950.20;;;15.06;71.83
80568;BME280;69922;45.656;25.586;2023-06-14T02:41:28;94947.20;;;15.05;71.84
80568;BME280;69922;45.656;25.586;2023-06-14T02:42:31;94946.74;;;15.06;71.62
80568;BME280;69922;45.656;25.586;2023-06-14T02:43:36;94947.74;;;15.05;71.23
80568;BME280;69922;45.656;25.586;2023-06-14T02:44:42;94947.74;;;15.05;71.31
80568;BME280;69922;45.656;25.586;2023-06-14T02:45:46;94952.15;;;15.05;71.38
80568;BME280;69922;45.656;25.586;2023-06-14T02:46:50;94952.63;;;15.05;71.31
80568;BME280;69922;45.656;25.586;2023-06-14T02:47:53;94957.79;;;15.08;71.35
80568;BME280;69922;45.656;25.586;2023-06-14T02:48:58;94956.03;;;15.10;71.24
80568;BME280;69922;45.656;25.586;2023-06-14T02:50:02;94958.65;;;15.11;70.84
80568;BME280;69922;45.656;25.586;2023-06-14T02:51:09;94958.79;;;15.10;70.84
80568;BME280;69922;45.656;25.586;2023-06-14T02:52:13;94959.08;;;15.09;70.54
80568;BME280;69922;45.656;25.586;2023-06-14T02:53:17;94958.64;;;15.07;70.70
80568;BME280;69922;45.656;25.586;2023-06-14T02:54:21;94961.45;;;15.07;70.86
80568;BME280;69922;45.656;25.586;2023-06-14T02:55:24;94958.69;;;15.06;70.83
80568;BME280;69922;45.656;25.586;2023-06-14T02:56:30;94960.44;;;15.07;70.88
80568;BME280;69922;45.656;25.586;2023-06-14T02:57:33;94959.16;;;15.06;70.66
80568;BME280;69922;45.656;25.586;2023-06-14T02:58:46;94963.27;;;15.03;70.81
80568;BME280;69922;45.656;25.586;2023-06-14T02:59:51;94964.13;;;15.03;70.89
80568;BME280;69922;45.656;25.586;2023-06-14T03:00:56;94962.50;;;15.04;70.76
80568;BME280;69922;45.656;25.586;2023-06-14T03:01:59;94963.77;;;15.05;70.80
80568;BME280;69922;45.656;25.586;2023-06-14T03:03:03;94966.94;;;15.06;71.10
80568;BME280;69922;45.656;25.586;2023-06-14T03:04:08;94966.43;;;15.08;71.18
80568;BME280;69922;45.656;25.586;2023-06-14T03:05:11;94969.94;;;15.10;71.24
80568;BME280;69922;45.656;25.586;2023-06-14T03:06:16;94969.30;;;15.12;71.37
80568;BME280;69922;45.656;25.586;2023-06-14T03:07:20;94966.88;;;15.13;71.12
80568;BME280;69922;45.656;25.586;2023-06-14T03:08:27;94968.84;;;15.16;71.22
80568;BME280;69922;45.656;25.586;2023-06-14T03:09:32;94971.94;;;15.18;71.08
80568;BME280;69922;45.656;25.586;2023-06-14T03:10:36;94970.61;;;15.21;70.90
80568;BME280;69922;45.656;25.586;2023-06-14T03:11:39;94973.96;;;15.24;70.93
80568;BME280;69922;45.656;25.586;2023-06-14T03:12:42;94973.80;;;15.27;70.91
80568;BME280;69922;45.656;25.586;2023-06-14T03:13:46;94975.20;;;15.29;71.10
80568;BME280;69922;45.656;25.586;2023-06-14T03:14:50;94977.71;;;15.32;71.07
80568;BME280;69922;45.656;25.586;2023-06-14T03:15:54;94971.57;;;15.35;70.90
80568;BME280;69922;45.656;25.586;2023-06-14T03:17:00;94976.02;;;15.40;70.83
80568;BME280;69922;45.656;25.586;2023-06-14T03:18:04;94975.98;;;15.44;70.88
80568;BME280;69922;45.656;25.586;2023-06-14T03:19:08;94975.85;;;15.49;70.91
80568;BME280;69922;45.656;25.586;2023-06-14T03:20:12;94978.27;;;15.55;71.10
80568;BME280;69922;45.656;25.586;2023-06-14T03:21:16;94975.63;;;15.60;71.04
80568;BME280;69922;45.656;25.586;2023-06-14T03:22:19;94975.04;;;15.65;71.13
80568;BME280;69922;45.656;25.586;2023-06-14T03:23:25;94972.80;;;15.71;70.93
80568;BME280;69922;45.656;25.586;2023-06-14T03:24:29;94973.63;;;15.77;70.62
80568;BME280;69922;45.656;25.586;2023-06-14T03:25:33;94970.29;;;15.81;70.45
80568;BME280;69922;45.656;25.586;2023-06-14T03:26:39;94972.84;;;15.87;70.20
80568;BME280;69922;45.656;25.586;2023-06-14T03:27:43;94977.73;;;15.91;70.16
80568;BME280;69922;45.656;25.586;2023-06-14T03:28:50;94974.60;;;15.96;69.63
80568;BME280;69922;45.656;25.586;2023-06-14T03:29:54;94974.10;;;15.98;68.97
80568;BME280;69922;45.656;25.586;2023-06-14T03:30:57;94974.99;;;16.00;69.34
80568;BME280;69922;45.656;25.586;2023-06-14T03:32:05;94973.70;;;16.01;68.88
80568;BME280;69922;45.656;25.586;2023-06-14T03:33:09;94974.95;;;16.05;68.85
80568;BME280;69922;45.656;25.586;2023-06-14T03:34:16;94973.34;;;16.08;68.91
80568;BME280;69922;45.656;25.586;2023-06-14T03:35:21;94972.10;;;16.12;68.61
80568;BME280;69922;45.656;25.586;2023-06-14T03:36:25;94974.16;;;16.16;68.62
80568;BME280;69922;45.656;25.586;2023-06-14T03:37:30;94973.07;;;16.21;68.22
80568;BME280;69922;45.656;25.586;2023-06-14T03:38:33;94971.48;;;16.23;67.71
80568;BME280;69922;45.656;25.586;2023-06-14T03:39:38;94972.06;;;16.25;67.72
80568;BME280;69922;45.656;25.586;2023-06-14T03:40:49;94966.11;;;16.27;67.49
80568;BME280;69922;45.656;25.586;2023-06-14T03:41:52;94969.22;;;16.29;67.37
80568;BME280;69922;45.656;25.586;2023-06-14T03:42:55;94969.98;;;16.31;67.36
80568;BME280;69922;45.656;25.586;2023-06-14T03:43:59;94972.56;;;16.35;67.50
80568;BME280;69922;45.656;25.586;2023-06-14T03:45:02;94970.17;;;16.38;67.08
80568;BME280;69922;45.656;25.586;2023-06-14T03:46:05;94968.89;;;16.40;66.88
80568;BME280;69922;45.656;25.586;2023-06-14T03:47:09;94973.25;;;16.42;66.59
80568;BME280;69922;45.656;25.586;2023-06-14T03:48:12;94971.53;;;16.42;66.45
80568;BME280;69922;45.656;25.586;2023-06-14T03:49:16;94971.97;;;16.44;66.34
80568;BME280;69922;45.656;25.586;2023-06-14T03:50:20;94976.02;;;16.45;66.52
80568;BME280;69922;45.656;25.586;2023-06-14T03:51:23;94977.62;;;16.47;66.11
80568;BME280;69922;45.656;25.586;2023-06-14T03:52:30;94978.39;;;16.46;65.94
80568;BME280;69922;45.656;25.586;2023-06-14T03:53:34;94975.42;;;16.48;66.33
80568;BME280;69922;45.656;25.586;2023-06-14T03:54:45;94980.94;;;16.51;66.40
80568;BME280;69922;45.656;25.586;2023-06-14T03:55:54;94976.51;;;16.55;65.86
80568;BME280;69922;45.656;25.586;2023-06-14T03:57:00;94977.67;;;16.58;65.60
80568;BME280;69922;45.656;25.586;2023-06-14T03:58:04;94976.20;;;16.59;65.26
80568;BME280;69922;45.656;25.586;2023-06-14T03:59:08;94977.11;;;16.61;65.04
80568;BME280;69922;45.656;25.586;2023-06-14T04:00:15;94980.98;;;16.62;64.85
80568;BME280;69922;45.656;25.586;2023-06-14T04:01:19;94981.39;;;16.63;64.63
80568;BME280;69922;45.656;25.586;2023-06-14T04:02:23;94981.56;;;16.64;64.51
80568;BME280;69922;45.656;25.586;2023-06-14T04:03:27;94983.21;;;16.64;64.44
80568;BME280;69922;45.656;25.586;2023-06-14T04:04:34;94983.57;;;16.61;64.18
80568;BME280;69922;45.656;25.586;2023-06-14T04:05:40;94982.36;;;16.60;64.16
80568;BME280;69922;45.656;25.586;2023-06-14T04:06:45;94984.36;;;16.58;64.00
80568;BME280;69922;45.656;25.586;2023-06-14T04:07:54;94985.45;;;16.57;64.02
80568;BME280;69922;45.656;25.586;2023-06-14T04:09:00;94988.34;;;16.55;64.03
80568;BME280;69922;45.656;25.586;2023-06-14T04:10:10;94987.37;;;16.54;64.16
80568;BME280;69922;45.656;25.586;2023-06-14T04:11:16;94985.43;;;16.55;64.04
80568;BME280;69922;45.656;25.586;2023-06-14T04:12:19;94988.30;;;16.58;64.01
80568;BME280;69922;45.656;25.586;2023-06-14T04:13:24;94988.44;;;16.60;64.07
80568;BME280;69922;45.656;25.586;2023-06-14T04:14:28;94992.84;;;16.63;63.92
80568;BME280;69922;45.656;25.586;2023-06-14T04:15:32;94989.15;;;16.65;63.81
80568;BME280;69922;45.656;25.586;2023-06-14T04:16:35;94994.25;;;16.68;63.78
80568;BME280;69922;45.656;25.586;2023-06-14T04:17:38;94991.09;;;16.72;63.70
80568;BME280;69922;45.656;25.586;2023-06-14T04:18:42;94995.75;;;16.77;63.60
80568;BME280;69922;45.656;25.586;2023-06-14T04:19:46;94994.02;;;16.80;63.32
80568;BME280;69922;45.656;25.586;2023-06-14T04:20:53;94995.01;;;16.84;63.31
80568;BME280;69922;45.656;25.586;2023-06-14T04:21:59;94992.33;;;16.88;63.27
80568;BME280;69922;45.656;25.586;2023-06-14T04:23:13;94990.98;;;16.91;63.10
80568;BME280;69922;45.656;25.586;2023-06-14T04:24:17;94995.42;;;16.93;63.23
80568;BME280;69922;45.656;25.586;2023-06-14T04:25:20;94994.03;;;16.95;63.20
80568;BME280;69922;45.656;25.586;2023-06-14T04:26:27;94994.52;;;16.96;63.19
80568;BME280;69922;45.656;25.586;2023-06-14T04:27:33;94997.13;;;16.97;63.11
80568;BME280;69922;45.656;25.586;2023-06-14T04:28:40;94997.45;;;16.97;63.08
80568;BME280;69922;45.656;25.586;2023-06-14T04:29:44;94998.23;;;16.96;63.13
80568;BME280;69922;45.656;25.586;2023-06-14T04:30:50;94996.02;;;16.97;63.20
80568;BME280;69922;45.656;25.586;2023-06-14T04:31:56;94997.21;;;16.98;63.17
80568;BME280;69922;45.656;25.586;2023-06-14T04:33:06;94996.35;;;16.97;63.42
80568;BME280;69922;45.656;25.586;2023-06-14T04:34:12;94999.00;;;16.95;63.27
80568;BME280;69922;45.656;25.586;2023-06-14T04:35:24;94995.39;;;16.91;63.10
80568;BME280;69922;45.656;25.586;2023-06-14T04:36:29;94994.23;;;16.89;63.30
80568;BME280;69922;45.656;25.586;2023-06-14T04:37:32;94995.39;;;16.92;63.69
80568;BME280;69922;45.656;25.586;2023-06-14T04:38:36;94997.23;;;16.98;63.93
80568;BME280;69922;45.656;25.586;2023-06-14T04:39:39;94996.95;;;17.04;63.55
80568;BME280;69922;45.656;25.586;2023-06-14T04:40:42;94996.75;;;17.10;63.32
80568;BME280;69922;45.656;25.586;2023-06-14T04:41:47;94999.06;;;17.17;63.43
80568;BME280;69922;45.656;25.586;2023-06-14T04:42:56;95002.20;;;17.21;62.69
80568;BME280;69922;45.656;25.586;2023-06-14T04:44:01;95001.21;;;17.23;62.73
80568;BME280;69922;45.656;25.586;2023-06-14T04:45:08;95004.79;;;17.25;62.68
80568;BME280;69922;45.656;25.586;2023-06-14T04:46:12;95005.77;;;17.26;62.34
80568;BME280;69922;45.656;25.586;2023-06-14T04:47:18;95002.13;;;17.27;62.69
80568;BME280;69922;45.656;25.586;2023-06-14T04:48:22;95001.60;;;17.27;62.66
80568;BME280;69922;45.656;25.586;2023-06-14T04:49:26;95007.52;;;17.28;62.77
80568;BME280;69922;45.656;25.586;2023-06-14T04:50:30;95003.36;;;17.29;62.71
80568;BME280;69922;45.656;25.586;2023-06-14T04:51:36;95003.94;;;17.30;62.72
80568;BME280;69922;45.656;25.586;2023-06-14T04:52:42;95002.13;;;17.30;62.61
80568;BME280;69922;45.656;25.586;2023-06-14T04:53:46;95008.05;;;17.30;62.82
80568;BME280;69922;45.656;25.586;2023-06-14T04:54:49;95006.15;;;17.30;62.81
80568;BME280;69922;45.656;25.586;2023-06-14T04:55:55;95006.30;;;17.31;62.94
80568;BME280;69922;45.656;25.586;2023-06-14T04:56:58;95008.30;;;17.32;62.94
80568;BME280;69922;45.656;25.586;2023-06-14T04:58:02;95009.17;;;17.32;63.11
80568;BME280;69922;45.656;25.586;2023-06-14T04:59:06;95013.38;;;17.34;63.08
80568;BME280;69922;45.656;25.586;2023-06-14T05:00:12;95012.13;;;17.35;63.02
80568;BME280;69922;45.656;25.586;2023-06-14T05:01:17;95015.95;;;17.36;63.37
80568;BME280;69922;45.656;25.586;2023-06-14T05:02:21;95018.44;;;17.34;63.76
80568;BME280;69922;45.656;25.586;2023-06-14T05:03:27;95020.01;;;17.34;63.05
80568;BME280;69922;45.656;25.586;2023-06-14T05:04:31;95019.62;;;17.34;62.98
80568;BME280;69922;45.656;25.586;2023-06-14T05:05:35;95020.80;;;17.35;62.80
80568;BME280;69922;45.656;25.586;2023-06-14T05:06:38;95023.86;;;17.34;62.80
80568;BME280;69922;45.656;25.586;2023-06-14T05:07:42;95023.23;;;17.34;62.83
80568;BME280;69922;45.656;25.586;2023-06-14T05:08:46;95020.13;;;17.32;62.85
80568;BME280;69922;45.656;25.586;2023-06-14T05:09:49;95019.40;;;17.30;63.01
80568;BME280;69922;45.656;25.586;2023-06-14T05:10:52;95020.21;;;17.27;63.18
80568;BME280;69922;45.656;25.586;2023-06-14T05:11:56;95022.39;;;17.21;62.88
80568;BME280;69922;45.656;25.586;2023-06-14T05:13:01;95022.27;;;17.14;62.94
80568;BME280;69922;45.656;25.586;2023-06-14T05:14:08;95025.28;;;17.06;62.98
80568;BME280;69922;45.656;25.586;2023-06-14T05:15:11;95027.86;;;17.00;63.33
80568;BME280;69922;45.656;25.586;2023-06-14T05:16:15;95025.73;;;16.96;63.55
80568;BME280;69922;45.656;25.586;2023-06-14T05:17:23;95022.65;;;16.91;63.78
80568;BME280;69922;45.656;25.586;2023-06-14T05:18:27;95023.84;;;16.88;63.80
80568;BME280;69922;45.656;25.586;2023-06-14T05:19:31;95026.48;;;16.85;63.78
80568;BME280;69922;45.656;25.586;2023-06-14T05:20:36;95024.45;;;16.82;64.09
80568;BME280;69922;45.656;25.586;2023-06-14T05:21:40;95028.91;;;16.80;63.98
80568;BME280;69922;45.656;25.586;2023-06-14T05:22:46;95031.49;;;16.80;64.14
80568;BME280;69922;45.656;25.586;2023-06-14T05:23:51;95031.38;;;16.82;64.49
80568;BME280;69922;45.656;25.586;2023-06-14T05:24:55;95032.42;;;16.83;64.76
80568;BME280;69922;45.656;25.586;2023-06-14T05:25:58;95033.93;;;16.83;64.46
80568;BME280;69922;45.656;25.586;2023-06-14T05:27:02;95034.87;;;16.82;64.34
80568;BME280;69922;45.656;25.586;2023-06-14T05:28:07;95034.55;;;16.83;64.36
80568;BME280;69922;45.656;25.586;2023-06-14T05:29:11;95035.52;;;16.84;64.38
80568;BME280;69922;45.656;25.586;2023-06-14T05:30:16;95034.86;;;16.87;64.24
80568;BME280;69922;45.656;25.586;2023-06-14T05:31:19;95035.33;;;16.91;64.37
80568;BME280;69922;45.656;25.586;2023-06-14T05:32:23;95034.33;;;16.96;64.53
80568;BME280;69922;45.656;25.586;2023-06-14T05:33:27;95035.98;;;17.00;64.25
80568;BME280;69922;45.656;25.586;2023-06-14T05:34:31;95034.46;;;17.04;63.97
80568;BME280;69922;45.656;25.586;2023-06-14T05:35:35;95033.23;;;17.06;63.99
80568;BME280;69922;45.656;25.586;2023-06-14T05:36:38;95032.36;;;17.05;64.04
80568;BME280;69922;45.656;25.586;2023-06-14T05:37:42;95031.66;;;17.06;63.56
80568;BME280;69922;45.656;25.586;2023-06-14T05:38:46;95035.80;;;17.08;63.64
80568;BME280;69922;45.656;25.586;2023-06-14T05:39:49;95036.23;;;17.10;63.76